Latest Weather Observations for Tewantin

IDQ60801

Issued at 2:05 pm EST Wednesday 3 September 2014 (issued every 30 minutes, with the page automatically refreshed every 10 minutes)

About weather observations | Map of weather stations | Latest weather observations for QLD | Other Formats
Station Details ID: 040908 Name: TEWANTIN RSL PARK Lat: -26.39 Lon: 153.04 Height: 6.4 m
Data from the previous 72 hours. | See also: Recent months at Tewantin
Date/Time
EST
Temp
°C
App
Temp
°C
Dew
Point
Rel
Hum
%
Delta-T
°C
Wind Press
QNH
hPa
Press
MSL
hPa
Rain
since 9 am
mm
Dir
 
Spd
km/h
Gust
km/h
Spd
kts
Gust
kts
03/02:00pm 21.9 18.1 -0.8 22 10.0 WSW 9 20 5 11 1010.6 1010.6 0.0
03/01:30pm 21.8 17.2 -0.8 22 10.0 WSW 13 26 7 14 1010.9 1010.9 0.0
03/01:00pm 21.8 16.3 -2.1 20 10.3 WSW 17 32 9 17 1010.9 1010.9 0.0
03/12:30pm 21.3 16.7 -1.3 22 9.8 W 13 32 7 17 1011.2 1011.2 0.0
03/12:00pm 21.2 16.7 -0.1 24 9.5 SW 13 24 7 13 1011.7 1011.7 0.0
03/11:30am 20.4 14.8 -3.3 20 9.8 WSW 17 35 9 19 1012.5 1012.5 0.0
03/11:00am 20.3 15.6 -2.1 22 9.5 W 13 22 7 12 1012.8 1012.8 0.0
03/10:30am 19.4 13.3 -2.2 23 9.1 WSW 20 43 11 23 1013.1 1013.1 0.0
03/10:00am 18.7 13.8 -0.7 27 8.3 WSW 15 32 8 17 1013.7 1013.7 0.0
03/09:30am 18.0 13.4 -0.8 28 8.0 SW 13 26 7 14 1014.4 1014.4 0.0
03/09:00am 17.5 13.3 1.5 34 7.1 WSW 13 24 7 13 1014.4 1014.4 0.0
03/08:30am 16.4 11.7 0.9 35 6.8 SW 15 28 8 15 1014.7 1014.7 0.0
03/08:00am 15.9 12.3 3.0 42 5.8 WSW 11 20 6 11 1014.3 1014.3 0.0
03/07:30am 15.1 11.9 3.3 45 5.4 WSW 9 19 5 10 1014.4 1014.4 0.0
03/07:00am 13.7 11.0 3.8 51 4.5 W 7 15 4 8 1014.3 1014.3 0.0
03/06:30am 11.1 9.3 3.6 60 3.3 W 2 6 1 3 1014.3 1014.3 0.0
03/06:00am 10.2 8.8 3.3 62 3.0 NW 0 0 0 0 1014.1 1014.1 0.0
03/05:30am 11.3 8.7 3.1 57 3.6 W 6 13 3 7 1013.8 1013.8 0.0
03/05:00am 11.9 9.1 3.4 56 3.8 W 7 13 4 7 1013.5 1013.5 0.0
03/04:30am 12.0 10.1 2.7 53 4.1 WSW 2 9 1 5 1012.9 1012.9 0.0
03/04:00am 12.3 10.3 2.2 50 4.4 WSW 2 6 1 3 1013.0 1013.0 0.0
03/03:30am 13.7 10.7 2.0 45 5.1 WSW 7 9 4 5 1012.9 1012.9 0.0
03/03:00am 14.3 11.3 1.9 43 5.4 SW 7 13 4 7 1012.9 1012.9 0.0
03/02:30am 14.6 11.2 1.8 42 5.6 SW 9 17 5 9 1013.1 1013.1 0.0
03/02:00am 15.0 12.1 1.2 39 6.0 SW 6 19 3 10 1013.2 1013.2 0.0
03/01:30am 15.8 12.2 0.8 36 6.5 WSW 9 19 5 10 1013.4 1013.4 0.0
03/01:00am 16.2 12.7 1.5 37 6.5 SW 9 19 5 10 1013.6 1013.6 0.0
03/12:30am 16.4 14.0 2.4 39 6.3 SSW 4 11 2 6 1013.7 1013.7 0.0
03/12:00am 17.2 14.2 2.0 36 6.8 SSW 7 19 4 10 1013.4 1013.4 0.0
 
Date/Time
EST
Temp
°C
App
Temp
°C
Dew
Point
Rel
Hum
%
Delta-T
°C
Wind Press
QNH
hPa
Press
MSL
hPa
Rain
since 9 am
mm
Dir
 
Spd
km/h
Gust
km/h
Spd
kts
Gust
kts
02/11:30pm 17.5 13.1 2.7 37 6.8 SSW 15 28 8 15 1012.7 1012.7 0.0
02/11:00pm 17.7 13.7 2.8 37 6.8 SW 13 22 7 12 1012.4 1012.4 0.0
02/10:30pm 18.3 14.5 3.8 38 6.8 SW 13 22 7 12 1012.4 1012.4 0.0
02/10:00pm 18.8 14.9 3.4 36 7.2 SSW 13 20 7 11 1012.4 1012.4 0.0
02/09:30pm 19.9 16.3 3.2 33 7.9 SW 11 28 6 15 1012.0 1012.0 0.0
02/09:00pm 20.8 16.8 3.1 31 8.4 SW 13 28 7 15 1011.6 1011.6 0.0
02/08:30pm 21.4 17.8 4.9 34 8.1 SW 13 30 7 16 1011.3 1011.3 0.0
02/08:00pm 21.1 19.1 7.0 40 7.2 SW 7 24 4 13 1011.0 1011.0 0.0
02/07:30pm 19.2 18.9 11.5 61 4.2 W 4 11 2 6 1010.6 1010.6 0.0
02/07:00pm 20.2 20.0 11.7 58 4.7 NW 4 9 2 5 1010.3 1010.3 0.0
02/06:30pm 21.1 20.1 12.3 57 5.0 WNW 9 15 5 8 1009.9 1009.9 0.0
02/06:00pm 21.7 20.3 12.3 55 5.3 NNW 11 19 6 10 1009.4 1009.4 0.0
02/05:30pm 22.3 19.9 12.5 53 5.6 N 17 24 9 13 1008.5 1008.5 0.0
02/05:00pm 22.7 19.5 13.2 55 5.5 N 22 35 12 19 1008.1 1008.1 0.0
02/04:30pm 23.4 19.5 13.3 53 5.8 N 26 39 14 21 1007.7 1007.7 0.0
02/04:00pm 24.6 22.1 14.1 52 6.2 N 20 30 11 16 1007.5 1007.5 0.0
02/03:30pm 26.1 22.3 9.0 34 9.3 NNW 19 30 10 16 1007.8 1007.8 0.0
02/03:00pm 26.6 24.4 10.7 37 9.0 NNW 13 19 7 10 1008.1 1008.1 0.0
02/02:30pm 26.9 25.0 11.8 39 8.7 NW 13 24 7 13 1008.4 1008.4 0.0
02/02:00pm 26.2 23.9 11.9 41 8.2 NNW 15 26 8 14 1008.9 1008.9 0.0
02/01:30pm 26.3 23.8 10.9 38 8.7 NW 15 24 8 13 1009.5 1009.5 0.0
02/01:00pm 25.3 22.3 12.5 45 7.4 NNW 20 33 11 18 1009.8 1009.8 0.0
02/12:30pm 25.0 22.3 12.9 47 7.0 NNW 19 32 10 17 1010.6 1010.6 0.0
02/12:00pm 23.4 20.5 11.1 46 6.9 NNW 17 28 9 15 1011.4 1011.4 0.0
02/11:30am 23.4 20.3 11.5 47 6.7 NNW 19 32 10 17 1012.0 1012.0 0.0
02/11:00am 23.1 20.2 12.4 51 6.1 NNW 19 30 10 16 1012.6 1012.6 0.0
02/10:30am 22.9 20.8 12.5 52 5.9 NW 15 28 8 15 1013.4 1013.4 0.0
02/10:00am 21.5 19.5 13.9 62 4.4 NNW 17 32 9 17 1014.0 1014.0 0.0
02/09:30am 20.5 19.0 14.2 67 3.7 NNW 15 22 8 12 1014.8 1014.8 0.0
02/09:00am 19.9 18.4 14.3 70 3.2 NW 15 24 8 13 1015.2 1015.2 0.0
02/08:30am 19.4 17.7 14.6 74 2.8 NNW 17 28 9 15 1015.3 1015.3 0.0
02/08:00am 18.6 17.9 15.5 82 1.8 NW 13 20 7 11 1015.6 1015.6 0.0
02/07:30am 17.1 17.2 16.5 96 0.4 NW 11 17 6 9 1015.7 1015.7 0.0
02/07:00am 16.8 16.6 16.6 99 0.1 NNW 13 19 7 10 1015.2 1015.2 0.0
02/06:30am 15.9 16.1 15.7 99 0.1 NW 9 15 5 8 1015.2 1015.2 0.0
02/06:00am 15.4 15.4 15.2 99 0.1 NNW 9 15 5 8 1015.3 1015.3 0.0
02/05:30am 15.9 16.1 15.7 99 0.1 NNW 9 13 5 7 1015.0 1015.0 0.0
02/05:00am 16.1 16.4 15.9 99 0.1 NNW 9 15 5 8 1015.0 1015.0 0.0
02/04:30am 16.1 16.4 15.9 99 0.1 NNW 9 11 5 6 1015.1 1015.1 0.0
02/04:00am 16.2 16.5 16.0 99 0.1 NNW 9 13 5 7 1015.0 1015.0 0.0
02/03:30am 16.2 16.1 16.0 99 0.1 NNW 11 17 6 9 1015.0 1015.0 0.0
02/03:00am 16.2 16.1 16.0 99 0.1 NNW 11 17 6 9 1015.3 1015.3 0.0
02/02:30am 16.1 16.4 15.9 99 0.1 NNW 9 13 5 7 1015.4 1015.4 0.0
02/02:00am 16.6 16.7 16.4 99 0.1 NNW 11 17 6 9 1015.6 1015.6 0.0
02/01:30am 16.6 16.7 16.4 99 0.1 NNW 11 19 6 10 1016.0 1016.0 0.0
02/01:00am 16.2 16.5 16.0 99 0.1 N 9 15 5 8 1016.3 1016.3 0.0
02/12:30am 15.6 16.0 15.3 98 0.2 NNW 7 11 4 6 1016.7 1016.7 0.0
02/12:00am 15.7 16.0 14.9 95 0.5 NNW 7 9 4 5 1017.0 1017.0 0.0
 
Date/Time
EST
Temp
°C
App
Temp
°C
Dew
Point
Rel
Hum
%
Delta-T
°C
Wind Press
QNH
hPa
Press
MSL
hPa
Rain
since 9 am
mm
Dir
 
Spd
km/h
Gust
km/h
Spd
kts
Gust
kts
01/11:30pm 16.2 16.4 14.7 91 0.9 NNW 7 11 4 6 1017.1 1017.1 0.0
01/11:00pm 16.5 16.3 14.7 89 1.0 NNW 9 13 5 7 1017.0 1017.0 0.0
01/10:30pm 16.8 16.4 14.1 84 1.5 NNW 9 15 5 8 1017.0 1017.0 0.0
01/10:00pm 16.7 15.9 13.0 79 2.1 NNW 9 13 5 7 1017.3 1017.3 0.0
01/09:30pm 17.1 16.6 13.8 81 1.9 N 9 13 5 7 1017.2 1017.2 0.0
01/09:00pm 17.7 17.9 14.6 82 1.8 N 7 13 4 7 1017.3 1017.3 0.0
01/08:30pm 17.8 18.1 16.1 90 1.0 N 9 15 5 8 1017.3 1017.3 0.0
01/08:00pm 18.7 18.8 16.5 87 1.3 N 11 19 6 10 1017.0 1017.0 0.0
01/07:30pm 19.1 18.8 16.5 85 1.6 N 13 22 7 12 1017.2 1017.2 0.0
01/07:00pm 19.2 18.8 16.1 82 1.8 N 13 19 7 10 1016.8 1016.8 0.0
01/06:30pm 19.2 19.1 16.1 82 1.8 N 11 15 6 8 1016.6 1016.6 0.0
01/06:00pm 19.7 18.9 16.2 80 2.1 N 15 24 8 13 1016.2 1016.2 0.0
01/05:30pm 20.1 18.6 16.3 79 2.3 NNE 19 32 10 17 1016.0 1016.0 0.0
01/05:00pm 20.4 18.4 16.4 78 2.4 NNE 22 32 12 17 1015.6 1015.6 0.0
01/04:30pm 20.6 17.8 16.4 77 2.5 NNE 26 37 14 20 1015.3 1015.3 0.0
01/04:00pm 21.0 19.0 16.4 75 2.8 NNE 22 32 12 17 1015.2 1015.2 0.0
01/03:30pm 21.1 19.0 16.3 74 2.9 NNE 22 33 12 18 1015.1 1015.1 0.0
01/03:00pm 21.8 20.6 16.1 70 3.4 NE 17 24 9 13 1015.4 1015.4 0.0
01/02:30pm 21.2 18.5 14.6 66 3.9 NNE 22 28 12 15 1015.7 1015.7 0.0
01/02:00pm 21.6 20.0 15.9 70 3.4 NNE 19 26 10 14 1016.1 1016.1 0.0
01/01:30pm 21.2 19.5 14.6 66 3.9 NE 17 22 9 12 1016.6 1016.6 0.0
01/01:00pm 22.8 22.2 16.6 68 3.8 NE 15 20 8 11 1016.8 1016.8 0.0
01/12:30pm 22.7 22.0 15.5 64 4.3 NNE 13 20 7 11 1017.2 1017.2 0.0
01/12:00pm 22.7 21.4 14.8 61 4.7 NNE 15 24 8 13 1017.5 1017.5 0.0
01/11:30am 23.1 21.6 13.0 53 5.8 N 13 20 7 11 1017.8 1017.8 0.0
01/11:00am 23.1 23.1 15.2 61 4.7 NNE 9 17 5 9 1018.7 1018.7 0.0
01/10:30am 23.1 23.4 14.4 58 5.1 NW 6 13 3 7 1019.4 1019.4 0.0
01/10:00am 21.5 21.5 14.2 63 4.2 N 7 13 4 7 1019.7 1019.7 0.0
01/09:30am 21.2 20.6 13.6 62 4.4 NW 9 13 5 7 1020.0 1020.0 0.0
01/09:00am 20.5 20.7 14.8 70 3.3 NW 7 13 4 7 1020.0 1020.0 0.0
01/08:30am 18.4 18.6 14.1 76 2.5 N 6 7 3 4 1019.8 1019.8 0.0
01/08:00am 17.5 19.2 15.3 87 1.3 CALM 0 0 0 0 1019.8 1019.8 0.0
01/07:30am 15.5 16.8 14.0 91 0.8 CALM 0 6 0 3 1019.4 1019.4 0.0
01/07:00am 14.5 15.5 14.2 98 0.2 NNW 2 6 1 3 1019.2 1019.2 0.0
01/06:30am 13.4 13.6 13.2 99 0.1 NNW 4 7 2 4 1019.0 1019.0 0.0
01/06:00am 12.9 13.7 12.7 99 0.1 CALM 0 0 0 0 1019.0 1019.0 0.0
01/05:30am 13.1 14.0 12.9 99 0.1 CALM 0 0 0 0 1018.7 1018.7 0.0
01/05:00am 13.3 14.3 13.1 99 0.1 CALM 0 0 0 0 1018.4 1018.4 0.0
01/04:30am 13.2 14.1 13.0 99 0.1 CALM 0 0 0 0 1018.3 1018.3 0.0
01/04:00am 13.3 14.3 13.1 99 0.1 CALM 0 0 0 0 1018.2 1018.2 0.0
01/03:30am 13.5 14.5 13.3 99 0.1 CALM 0 0 0 0 1018.1 1018.1 0.0
01/03:00am 13.8 14.9 13.6 99 0.1 CALM 0 0 0 0 1018.2 1018.2 0.0
01/02:30am 13.7 14.7 13.2 97 0.3 CALM 0 0 0 0 1018.1 1018.1 0.0
01/02:00am 14.2 15.5 14.0 99 0.1 CALM 0 0 0 0 1018.4 1018.4 0.0
01/01:30am 14.1 15.3 13.8 98 0.2 CALM 0 0 0 0 1018.5 1018.5 0.0
01/01:00am 14.2 15.3 13.6 96 0.3 CALM 0 0 0 0 1018.5 1018.5 0.0
01/12:30am 14.6 15.8 13.8 95 0.4 CALM 0 0 0 0 1018.5 1018.5 0.0
01/12:00am 14.9 16.1 13.9 94 0.6 CALM 0 0 0 0 1018.6 1018.6 0.0
 
Date/Time
EST
Temp
°C
App
Temp
°C
Dew
Point
Rel
Hum
%
Delta-T
°C
Wind Press
QNH
hPa
Press
MSL
hPa
Rain
since 9 am
mm
Dir
 
Spd
km/h
Gust
km/h
Spd
kts
Gust
kts
31/11:30pm 15.2 16.5 14.2 94 0.6 CALM 0 0 0 0 1018.7 1018.7 0.0
31/11:00pm 15.6 17.0 14.3 92 0.7 CALM 0 0 0 0 1019.0 1019.0 0.0
31/10:30pm 16.0 17.4 14.5 91 0.9 CALM 0 0 0 0 1019.1 1019.1 0.0
31/10:00pm 16.4 17.7 15.1 92 0.8 WNW 2 7 1 4 1019.0 1019.0 0.0
31/09:30pm 16.4 18.0 14.8 90 0.9 CALM 0 0 0 0 1019.0 1019.0 0.0
31/09:00pm 15.9 17.3 14.4 91 0.9 CALM 0 0 0 0 1018.8 1018.8 0.0
31/08:30pm 16.1 17.5 14.3 89 1.0 CALM 0 0 0 0 1018.7 1018.7 0.0
31/08:00pm 16.3 17.3 14.3 88 1.1 SW 2 7 1 4 1018.5 1018.5 0.0
31/07:30pm 16.9 18.3 14.5 86 1.4 CALM 0 4 0 2 1018.2 1018.2 0.0
31/07:00pm 17.6 19.2 14.9 84 1.6 CALM 0 0 0 0 1017.8 1017.8 0.0
31/06:30pm 17.9 19.5 14.8 82 1.8 CALM 0 0 0 0 1017.5 1017.5 0.0
31/06:00pm 18.4 18.6 14.3 77 2.4 ENE 6 7 3 4 1017.1 1017.1 0.0
31/05:30pm 19.0 19.0 14.3 74 2.7 ENE 7 9 4 5 1017.0 1017.0 0.0
31/05:00pm 19.6 19.3 14.4 72 3.0 NE 9 13 5 7 1016.8 1016.8 0.0
31/04:30pm 19.9 19.0 13.8 68 3.5 ENE 11 17 6 9 1016.6 1016.6 0.0
31/04:00pm 20.4 19.5 13.8 66 3.8 ENE 11 19 6 10 1016.2 1016.2 0.0
31/03:30pm 20.9 19.8 14.3 66 3.8 NE 13 22 7 12 1016.1 1016.1 0.0
31/03:00pm 21.8 20.7 14.4 63 4.3 NE 13 19 7 10 1016.0 1016.0 0.0
31/02:30pm 21.7 20.7 13.3 59 4.8 E 11 15 6 8 1016.0 1016.0 0.0

Other Formats:

Comma delimited format used in spreadsheet applications
http://www.bom.gov.au/fwo/IDQ60801/IDQ60801.94570.axf

JavaScript Object Notation format (JSON) in row-major order
http://www.bom.gov.au/fwo/IDQ60801/IDQ60801.94570.json